Domov               UVHVVR             MKGP            O straneh              
ZDRAVSTVENO VARSTVO RASTLIN
  MREŽA AGROMET. POSTAJ
 ► PROGNOSTIČNA OBVESTILA
AGROMETEOROLOŠKI PODATKI -
ARSO
OBVLADOVANJE TVEGANJ ZARADI
NEUGODNIH VREMENSKIH RAZMER
  ► NARAVNE NESREČE
  ► SUŠA/MOČA
  ► NAMAKANJE
  ► ŽLED (gozdarstvo)
KARTOGRAFSKI PRIKAZI
SPLETNE POVEZAVE
PROJEKTI IN PUBLIKACIJE

AGROMETEOROLOŠKA MREŽA: VREMENSKE POSTAJE IN FENOLOŠKA OPAZOVANJA

Pregled podatkov za lokacijo Gabernik-Rogaška, meteorološka postaja 37800

Pregled senzorjev na lokaciji

ID Ime Zadnja
vrednost
Datum
zadnje
spremembe
Tip
senzorja
1828 Omočenost lista (U) 1 U 23.7.2018 04:30 A730WET
1829 Padavine (mm) 0 mm 23.7.2018 04:30 Rain-O-Matic
1827 Relativna vlaga 2 m (% RH) 87,52 % RH 23.7.2018 04:30 50YA
1826 Temperatura 2 m (°C) 17,19 °C 23.7.2018 04:30 50YA

Pregled podatkov zadnjih 24 ur

Zap.
št.
Datum in čas Gabernik-Rogaška
Omočenost
lista
Padavine Relativna
vlaga
2
m
Temperatura
2
m
1 23.7.2018 05:30
2 23.7.2018 05:00
3 23.7.2018 04:30
4 23.7.2018 04:00
5 23.7.2018 03:30 1 0 87,5 17,2
6 23.7.2018 03:00 0 0 84,7 17,3
7 23.7.2018 02:30 0 0 88,1 17,3
8 23.7.2018 02:00 0 0 80,2 18,1
9 23.7.2018 01:30 1 0 91,9 17,4
10 23.7.2018 01:00 4 0 90,6 17,5
11 23.7.2018 00:30 5 0 86,6 17,8
12 23.7.2018 00:00 10 0 86 17,9
13 22.7.2018 23:30 10 0 90,7 17,7
14 22.7.2018 23:00 10 0 95,7 17,5
15 22.7.2018 22:30 10 0 96,7 17,4
16 22.7.2018 22:00 10 0 95,7 17,2
17 22.7.2018 21:30 10 0 92,3 17,4
18 22.7.2018 21:00 7 0 87,3 18,1
19 22.7.2018 20:30 2 0 88,9 18,1
20 22.7.2018 20:00 0 0 84,6 18,8
21 22.7.2018 19:30 9 0 86,8 18,8
22 22.7.2018 19:00 10 0 89,5 19
23 22.7.2018 18:30 1 0 83,9 19,7
24 22.7.2018 18:00 0 0 84,9 19,8
25 22.7.2018 17:30 0 0 85,7 20
26 22.7.2018 17:00 0 0 85,6 20,7
27 22.7.2018 16:30 0 0 88,5 21
28 22.7.2018 16:00 0 0 94 20,1
29 22.7.2018 15:30 0 0 95,9 19,3
30 22.7.2018 15:00 0 0 98,9 19,9
31 22.7.2018 14:30 10 0 99,5 19,4
32 22.7.2018 14:00 7 0 99,1 19,1
33 22.7.2018 13:30 1 0 98,7 19,4
34 22.7.2018 13:00 10 10,2 94,9 19,9
35 22.7.2018 12:30 0 0 75,6 23,2
36 22.7.2018 12:00 0 0 55,7 29,5
37 22.7.2018 11:30 0 0 58,8 28,7
38 22.7.2018 11:00 0 0 72,1 25,3
39 22.7.2018 10:30 0 0 80,3 23,4
40 22.7.2018 10:00 0 0 81,4 23,2
41 22.7.2018 09:30 0 0 82,6 22,6
42 22.7.2018 09:00 0 0 83,5 22
43 22.7.2018 08:30 0 0 85,2 20,7
44 22.7.2018 08:00 0 0 90,2 19,4
45 22.7.2018 07:30 2 0 94,7 18,3
46 22.7.2018 07:00 1 0 93,3 18
47 22.7.2018 06:30 10 0 94 17,7
48 22.7.2018 06:00 10 0 94,6 17,3
© 2011 Ministrstvo za kmetijstvo, gozdarstvo in prehrano. Vse pravice pridržane.